Saint George's, Canada
Current Conditions -  °F | °C
As of 9:05 PM on Wednesday 28 Jan 2015 (Local Time) from CYJT Reporting Station
Snow Showers Snow Showers  
Wind Chill: -1°   Ceiling: 2000
Heat Index:   Visibility: 10mi
Dew Point:   Wind: 5mph
Humidity: 93%   Direction: 270°W
Pressure: 29.67"   Gusts: NA
Location:  48.43°N, 58.5°W
Report Text: CYJT 290005Z 27004KT 10SM -SHRASN OVC020 01/M00 A2967 RMK SC8 SLP048
Loading
Personal Weather Stations






























Interactive Weather Map New forecast layout! Learn more

10-Day Weather Forecast

Advertisements
Track Severe Weather on mobile